Time;durP1;ratioP1;P1;durP2;ratioP2;P2;SDS_P1;SDS_P2;PMS_P1;PMS_P2;Temp;Humidity;BMP_temperature;BMP_pressure;BME280_temperature;BME280_humidity;BME280_pressure;Samples;Min_cycle;Max_cycle;Signal;HPM_P1;HPM_P2
2023/04/24 00:00:50;;;;;;;1.30;0.38;;;;;;;13.75;69.87;98961.09;10270877;28;20054;-58
2023/04/24 00:05:52;;;;;;;1.60;0.57;;;;;;;13.73;69.71;98949.72;10262107;28;20058;-58
2023/04/24 00:10:53;;;;;;;4.50;1.25;;;;;;;13.71;69.90;98950.94;10245302;28;20046;-58
2023/04/24 00:15:55;;;;;;;1.02;0.60;;;;;;;13.61;70.28;98945.78;10257997;28;20059;-59
2023/04/24 00:20:57;;;;;;;1.70;0.73;;;;;;;13.63;70.88;98943.78;10254925;28;20488;-58
2023/04/24 00:25:59;;;;;;;1.85;0.60;;;;;;;13.46;72.07;98931.50;10260157;28;20169;-59
2023/04/24 00:31:01;;;;;;;1.30;0.80;;;;;;;13.56;72.22;98938.28;10254986;28;20062;-59
2023/04/24 00:36:03;;;;;;;0.98;0.60;;;;;;;13.51;72.63;98926.44;10258895;28;20046;-58
2023/04/24 00:41:04;;;;;;;2.05;0.70;;;;;;;13.51;72.13;98918.44;10262329;28;20521;-58
2023/04/24 00:46:06;;;;;;;1.13;0.70;;;;;;;13.53;72.11;98922.59;10264674;28;20061;-58
2023/04/24 00:51:07;;;;;;;2.00;0.70;;;;;;;13.37;72.03;98909.31;10263337;28;20179;-59
2023/04/24 00:56:09;;;;;;;2.63;0.60;;;;;;;13.41;72.17;98907.97;10267044;28;20051;-58
2023/04/24 01:01:11;;;;;;;3.30;0.95;;;;;;;13.28;71.49;98887.09;10268562;28;20046;-58
2023/04/24 01:06:14;;;;;;;2.20;1.15;;;;;;;13.44;71.13;98902.25;10264458;28;20150;-58
2023/04/24 01:11:16;;;;;;;1.30;0.70;;;;;;;13.40;70.92;98907.09;10257523;28;20740;-58
2023/04/24 01:16:20;;;;;;;2.75;0.65;;;;;;;13.49;70.58;98909.75;10258633;28;20062;-58
2023/04/24 01:21:27;;;;;;;0.98;0.45;;;;;;;13.38;70.61;98906.47;10264994;28;20122;-58
2023/04/24 01:26:29;;;;;;;2.45;0.40;;;;;;;13.30;70.88;98894.94;10265972;28;20081;-58
2023/04/24 01:31:31;;;;;;;1.52;0.60;;;;;;;13.27;71.26;98896.16;10257018;28;20538;-58
2023/04/24 01:36:34;;;;;;;2.25;0.45;;;;;;;13.33;71.17;98905.28;10265026;28;20065;-58
2023/04/24 01:41:37;;;;;;;1.67;0.45;;;;;;;13.23;71.48;98910.84;10263984;28;20057;-59
2023/04/24 01:46:39;;;;;;;1.38;0.40;;;;;;;13.09;72.31;98902.56;10267825;28;20172;-58
2023/04/24 01:51:41;;;;;;;0.50;0.30;;;;;;;13.13;72.21;98904.88;10266295;28;20415;-57
2023/04/24 01:56:43;;;;;;;4.03;0.82;;;;;;;13.09;72.21;98889.19;10265091;28;20069;-60
2023/04/24 02:01:44;;;;;;;0.95;0.50;;;;;;;13.13;72.59;98895.00;10242760;28;20687;-64
2023/04/24 02:06:46;;;;;;;1.77;0.55;;;;;;;13.14;72.37;98885.19;10255673;28;20144;-58
2023/04/24 02:11:48;;;;;;;1.20;0.52;;;;;;;13.07;72.45;98885.84;10255291;28;20065;-58
2023/04/24 02:16:49;;;;;;;1.38;0.50;;;;;;;13.13;72.24;98896.88;10257147;28;20867;-58
2023/04/24 02:21:51;;;;;;;4.25;0.70;;;;;;;13.05;72.31;98892.38;10262764;28;20050;-60
2023/04/24 02:26:53;;;;;;;1.20;0.60;;;;;;;13.00;72.29;98868.88;10257145;28;20058;-62
2023/04/24 02:31:54;;;;;;;1.63;0.65;;;;;;;12.95;72.44;98887.22;10258405;28;20057;-59
2023/04/24 02:36:56;;;;;;;2.45;0.80;;;;;;;12.84;73.12;98882.28;10256410;28;20130;-59
2023/04/24 02:41:58;;;;;;;1.45;0.45;;;;;;;12.77;73.52;98879.44;10256977;28;20050;-61
2023/04/24 02:46:59;;;;;;;1.98;0.50;;;;;;;12.68;74.34;98880.47;10258998;28;20101;-59
2023/04/24 02:52:01;;;;;;;1.55;0.65;;;;;;;12.65;74.71;98905.66;10259289;28;20926;-59
2023/04/24 02:57:02;;;;;;;3.00;0.50;;;;;;;12.51;75.24;98882.34;10258403;28;20055;-58
2023/04/24 03:02:05;;;;;;;1.80;0.50;;;;;;;12.54;75.38;98908.72;10258966;28;20058;-61
2023/04/24 03:07:07;;;;;;;1.48;0.70;;;;;;;12.62;75.06;98907.84;10247754;28;20711;-63
2023/04/24 03:12:08;;;;;;;3.47;0.50;;;;;;;12.52;75.06;98897.34;10260220;28;20055;-59
2023/04/24 03:17:10;;;;;;;2.38;0.50;;;;;;;12.50;75.54;98912.72;10259899;28;20063;-59
2023/04/24 03:22:12;;;;;;;1.48;0.45;;;;;;;12.52;75.51;98913.34;10257534;28;20060;-59
2023/04/24 03:27:14;;;;;;;2.20;0.60;;;;;;;12.51;75.40;98906.38;10263652;28;20050;-59
2023/04/24 03:32:15;;;;;;;1.00;0.30;;;;;;;12.50;75.34;98916.19;10259789;28;20287;-59
2023/04/24 03:37:17;;;;;;;1.77;0.70;;;;;;;12.51;75.55;98911.72;10254491;28;20050;-57
2023/04/24 03:42:18;;;;;;;3.08;0.60;;;;;;;12.56;75.39;98930.72;10264254;28;20046;-58
2023/04/24 03:47:20;;;;;;;2.55;0.57;;;;;;;12.49;75.19;98925.22;10263339;28;20143;-58
2023/04/24 03:52:22;;;;;;;1.08;0.47;;;;;;;12.57;75.34;98940.41;10260284;28;20055;-58
2023/04/24 03:57:24;;;;;;;1.00;0.40;;;;;;;12.55;75.33;98937.06;10258118;28;20149;-58
2023/04/24 04:02:26;;;;;;;1.55;0.50;;;;;;;12.53;75.68;98953.22;10260969;28;20581;-58
2023/04/24 04:07:29;;;;;;;1.23;0.50;;;;;;;12.56;75.77;98952.06;10261723;28;20059;-58
2023/04/24 04:12:31;;;;;;;1.35;0.57;;;;;;;12.61;75.89;98968.44;10255460;28;20054;-59
2023/04/24 04:17:33;;;;;;;1.95;0.65;;;;;;;12.55;75.93;98953.91;10259209;28;20753;-58
2023/04/24 04:22:37;;;;;;;1.38;0.40;;;;;;;12.59;75.82;98962.41;10282587;28;20066;-58
2023/04/24 04:27:41;;;;;;;1.05;0.60;;;;;;;12.55;74.76;98969.09;10269226;28;20205;-58
2023/04/24 04:32:43;;;;;;;1.70;0.50;;;;;;;12.59;74.27;98967.75;10262383;28;20590;-58
2023/04/24 04:37:45;;;;;;;1.23;0.70;;;;;;;12.56;73.57;98962.75;10266011;28;20055;-58
2023/04/24 04:42:47;;;;;;;1.42;0.75;;;;;;;12.44;73.34;98991.59;10263729;28;20046;-58
2023/04/24 04:47:49;;;;;;;1.08;0.60;;;;;;;12.34;68.76;98991.78;10257180;28;20053;-58
2023/04/24 04:52:50;;;;;;;1.08;0.70;;;;;;;12.29;68.24;98994.09;10270525;28;20069;-58
2023/04/24 04:57:52;;;;;;;1.10;0.60;;;;;;;12.26;68.90;98999.75;10266332;28;20057;-58
2023/04/24 05:02:54;;;;;;;2.08;1.20;;;;;;;12.09;66.96;98992.75;10273908;28;20058;-58
2023/04/24 05:08:09;;;;;;;1.13;0.98;;;;;;;12.12;67.90;99008.44;10258434;28;20053;-58
2023/04/24 05:13:27;;;;;;;1.27;0.88;;;;;;;12.01;67.26;99009.56;10256943;28;20423;-58
2023/04/24 05:18:40;;;;;;;1.83;1.10;;;;;;;11.93;66.62;99023.69;10281405;28;20072;-57
2023/04/24 05:23:42;;;;;;;0.93;0.85;;;;;;;11.87;66.82;99026.16;10256777;28;20188;-57
2023/04/24 05:28:44;;;;;;;1.13;1.02;;;;;;;11.82;66.42;99021.31;10263821;28;20696;-58
2023/04/24 05:33:45;;;;;;;1.85;0.98;;;;;;;11.76;64.40;99051.28;10267864;28;20104;-57
2023/04/24 05:38:47;;;;;;;2.92;1.63;;;;;;;11.82;63.80;99046.13;10250536;28;21032;-59
2023/04/24 05:43:49;;;;;;;1.52;1.15;;;;;;;11.90;63.17;99057.84;10262962;28;20058;-58
2023/04/24 05:48:51;;;;;;;1.88;1.20;;;;;;;11.87;59.20;99076.81;10254747;28;21045;-58
2023/04/24 05:53:53;;;;;;;2.35;1.50;;;;;;;11.88;55.99;99091.84;10269095;28;20125;-60
2023/04/24 05:58:55;;;;;;;3.05;1.83;;;;;;;11.97;53.69;99085.56;10262560;28;20119;-61
2023/04/24 06:03:58;;;;;;;1.73;1.60;;;;;;;12.00;55.03;99070.06;10274579;28;20555;-59
2023/04/24 06:09:00;;;;;;;2.38;1.70;;;;;;;12.12;55.09;99088.44;10268252;28;20236;-58
2023/04/24 06:14:02;;;;;;;3.47;1.58;;;;;;;12.09;54.94;99088.78;10271524;28;20048;-58
2023/04/24 06:19:03;;;;;;;2.40;1.88;;;;;;;12.14;59.81;99099.78;10257576;28;20879;-54
2023/04/24 06:24:06;;;;;;;2.25;1.58;;;;;;;12.12;56.02;99093.78;10261568;28;20220;-59
2023/04/24 06:29:08;;;;;;;2.63;2.42;;;;;;;11.80;55.70;99069.47;10266441;28;20053;-58
2023/04/24 06:34:10;;;;;;;2.78;2.30;;;;;;;12.19;56.50;99127.66;10258494;28;20083;-59
2023/04/24 06:39:12;;;;;;;2.33;1.70;;;;;;;12.35;55.58;99118.00;10251139;28;20062;-59
2023/04/24 06:44:15;;;;;;;2.30;2.10;;;;;;;12.44;55.47;99140.22;10260654;28;20093;-58
2023/04/24 06:49:18;;;;;;;3.00;2.10;;;;;;;12.35;55.81;99131.34;10258852;28;20749;-58
2023/04/24 06:54:20;;;;;;;2.78;2.58;;;;;;;12.29;56.57;99127.50;10262019;28;20047;-59
2023/04/24 06:59:21;;;;;;;4.03;2.38;;;;;;;12.10;56.63;99123.28;10264528;28;20290;-59
2023/04/24 07:04:24;;;;;;;3.33;2.08;;;;;;;12.20;57.45;99137.34;10260979;28;20058;-58
2023/04/24 07:09:27;;;;;;;2.38;1.95;;;;;;;12.11;57.00;99119.59;10257648;28;20150;-59
2023/04/24 07:14:28;;;;;;;1.92;1.83;;;;;;;12.20;57.54;99117.81;10258240;28;20461;-59
2023/04/24 07:19:33;;;;;;;3.63;2.38;;;;;;;12.33;57.38;99110.19;10252679;28;20051;-60
2023/04/24 07:24:35;;;;;;;3.45;2.53;;;;;;;12.44;57.27;99113.53;10255573;28;20058;-58
2023/04/24 07:29:38;;;;;;;3.88;2.72;;;;;;;12.59;56.72;99117.22;10258409;28;20131;-59
2023/04/24 07:34:40;;;;;;;3.70;3.35;;;;;;;12.62;56.40;99122.25;10259614;28;20064;-58
2023/04/24 07:39:42;;;;;;;2.90;2.25;;;;;;;12.59;56.13;99111.91;10250103;28;20049;-58
2023/04/24 07:44:43;;;;;;;2.95;2.28;;;;;;;12.66;56.14;99106.75;10275693;28;20046;-58
2023/04/24 07:49:45;;;;;;;1.85;1.75;;;;;;;12.56;55.83;99128.25;10263811;28;20501;-57
2023/04/24 07:54:49;;;;;;;2.78;2.08;;;;;;;12.54;55.45;99122.25;10268203;28;20043;-58
2023/04/24 07:59:51;;;;;;;2.30;1.95;;;;;;;12.70;55.17;99114.25;10265713;28;20080;-58
2023/04/24 08:04:57;;;;;;;3.80;2.28;;;;;;;12.95;54.14;99151.66;10272807;28;20053;-57
2023/04/24 08:10:01;;;;;;;2.13;1.83;;;;;;;12.57;54.78;99111.22;10261052;28;20077;-57
2023/04/24 08:15:03;;;;;;;2.58;2.35;;;;;;;12.81;54.82;99128.28;10261709;28;20537;-57
2023/04/24 08:20:05;;;;;;;3.85;2.10;;;;;;;12.95;54.67;99137.47;10269367;28;20593;-55
2023/04/24 08:25:08;;;;;;;4.03;2.10;;;;;;;12.98;54.42;99140.63;10268884;28;20128;-56
2023/04/24 08:30:10;;;;;;;4.28;2.30;;;;;;;13.13;52.34;99145.31;10268835;28;20863;-56
2023/04/24 08:35:12;;;;;;;2.33;2.05;;;;;;;13.09;52.19;99151.00;10260832;28;20124;-55
2023/04/24 08:40:15;;;;;;;2.15;1.75;;;;;;;13.55;50.73;99166.53;10261180;28;20058;-56
2023/04/24 08:45:18;;;;;;;4.22;2.30;;;;;;;13.89;50.08;99167.31;10267867;28;20054;-56
2023/04/24 08:50:21;;;;;;;3.80;2.17;;;;;;;13.76;49.00;99174.00;10263892;28;20053;-57
2023/04/24 08:55:24;;;;;;;2.13;1.92;;;;;;;13.42;50.40;99185.78;10270813;28;20825;-56
2023/04/24 09:00:27;;;;;;;1.95;1.55;;;;;;;13.19;50.98;99174.88;10254209;28;20054;-56
2023/04/24 09:05:29;;;;;;;1.92;1.70;;;;;;;12.95;51.74;99186.38;10266516;28;20571;-56
2023/04/24 09:10:31;;;;;;;2.97;1.80;;;;;;;12.78;52.84;99190.03;10267401;28;20050;-56
2023/04/24 09:15:34;;;;;;;3.05;1.95;;;;;;;12.77;54.18;99199.03;10264708;28;20076;-58
2023/04/24 09:21:03;;;;;;;3.33;1.55;;;;;;;12.79;53.92;99200.56;10262193;28;20058;-58
2023/04/24 09:26:05;;;;;;;2.38;1.55;;;;;;;12.86;54.47;99192.72;10216055;28;20191;-56
2023/04/24 09:31:13;;;;;;;1.75;1.30;;;;;;;12.86;54.37;99204.22;10250662;28;20052;-58
2023/04/24 09:36:17;;;;;;;2.47;1.95;;;;;;;12.76;54.57;99221.41;10261969;28;20151;-57
2023/04/24 09:41:18;;;;;;;2.67;1.63;;;;;;;12.59;54.92;99239.19;10272298;28;20056;-56
2023/04/24 09:46:21;;;;;;;4.15;1.88;;;;;;;12.51;55.67;99226.66;10265191;28;20108;-57
2023/04/24 09:51:37;;;;;;;2.72;1.88;;;;;;;12.52;55.29;99239.00;10274573;28;20756;-57
2023/04/24 09:56:44;;;;;;;3.08;1.80;;;;;;;12.44;55.40;99236.31;10279551;28;20054;-57
2023/04/24 10:01:46;;;;;;;2.53;1.77;;;;;;;12.34;55.23;99215.94;10264032;28;20104;-57
2023/04/24 10:06:49;;;;;;;3.25;1.80;;;;;;;12.61;55.64;99242.53;10276787;28;20061;-56
2023/04/24 10:11:53;;;;;;;2.85;2.05;;;;;;;12.68;55.58;99248.91;10274101;28;22701;-56
2023/04/24 10:16:58;;;;;;;1.63;1.37;;;;;;;12.80;55.24;99244.94;10254976;28;20057;-57
2023/04/24 10:22:00;;;;;;;1.83;1.55;;;;;;;12.62;55.92;99271.75;10273406;28;20087;-56
2023/04/24 10:27:03;;;;;;;2.03;1.30;;;;;;;12.59;57.41;99271.25;10260650;28;20054;-58
2023/04/24 10:32:07;;;;;;;2.50;1.30;;;;;;;12.49;59.35;99266.00;10272852;28;20159;-56
2023/04/24 10:37:08;;;;;;;2.47;1.40;;;;;;;12.48;60.57;99275.03;10256843;28;20759;-57
2023/04/24 10:42:16;;;;;;;3.97;1.30;;;;;;;12.46;63.06;99306.38;10258889;28;20157;-56
2023/04/24 10:47:18;;;;;;;1.80;1.60;;;;;;;12.24;65.10;99303.25;10263968;28;20046;-56
2023/04/24 10:52:20;;;;;;;3.40;1.70;;;;;;;12.43;65.85;99315.56;10259775;28;20823;-56
2023/04/24 10:57:30;;;;;;;3.42;1.80;;;;;;;12.42;66.68;99313.03;10259553;28;20066;-57
2023/04/24 11:02:48;;;;;;;2.88;1.90;;;;;;;12.55;66.43;99313.44;10267256;28;20490;-57
2023/04/24 11:08:13;;;;;;;2.13;1.60;;;;;;;13.55;64.98;99315.44;10258513;28;20057;-56
2023/04/24 11:13:21;;;;;;;3.38;2.05;;;;;;;13.97;61.89;99314.44;10270717;28;20139;-59
2023/04/24 11:18:23;;;;;;;3.42;1.20;;;;;;;14.35;60.53;99317.38;10259300;28;20064;-63
2023/04/24 11:23:25;;;;;;;1.13;0.77;;;;;;;14.14;58.05;99294.69;10276366;28;20058;-58
2023/04/24 11:28:28;;;;;;;2.78;0.90;;;;;;;14.30;57.26;99295.66;10270248;28;20066;-57
2023/04/24 11:33:31;;;;;;;1.85;0.88;;;;;;;14.40;56.53;99293.63;10276800;28;20049;-58
2023/04/24 11:38:33;;;;;;;0.90;0.60;;;;;;;16.70;49.83;99301.03;10266507;28;20054;-59
2023/04/24 11:43:34;;;;;;;2.00;0.80;;;;;;;17.42;48.21;99312.88;10261371;28;20148;-61
2023/04/24 11:48:39;;;;;;;2.33;1.05;;;;;;;17.97;46.55;99307.81;10259674;28;20104;-59
2023/04/24 11:53:41;;;;;;;1.02;0.80;;;;;;;17.27;46.98;99302.16;10265350;28;20100;-57
2023/04/24 11:58:44;;;;;;;0.82;0.70;;;;;;;16.52;47.43;99320.22;10252989;28;20534;-59
2023/04/24 12:03:51;;;;;;;1.15;0.50;;;;;;;15.64;48.37;99333.22;10255720;28;20054;-60
2023/04/24 12:08:55;;;;;;;1.77;0.75;;;;;;;15.11;51.31;99328.50;10260977;28;20062;-58
2023/04/24 12:14:12;;;;;;;1.70;1.38;;;;;;;14.65;56.69;99339.94;10262267;28;20674;-57
2023/04/24 12:19:22;;;;;;;2.65;1.50;;;;;;;14.66;62.37;99343.44;10266518;28;20046;-59
2023/04/24 12:24:23;;;;;;;2.60;1.20;;;;;;;14.41;62.43;99359.56;10248621;28;20058;-59
2023/04/24 12:29:25;;;;;;;1.67;0.75;;;;;;;13.82;66.29;99365.09;10250488;28;20311;-57
2023/04/24 12:34:26;;;;;;;1.50;0.80;;;;;;;14.51;64.37;99375.41;10256005;28;20054;-57
2023/04/24 12:39:28;;;;;;;5.15;0.88;;;;;;;15.35;61.68;99367.75;10255400;28;20053;-58
2023/04/24 12:44:34;;;;;;;1.45;1.05;;;;;;;15.32;60.66;99369.97;10271347;28;20054;-58
2023/04/24 12:49:36;;;;;;;1.63;1.00;;;;;;;14.92;57.68;99359.28;10275673;28;20470;-59
2023/04/24 12:54:37;;;;;;;2.42;1.75;;;;;;;14.70;58.27;99355.50;10264451;28;20065;-58
2023/04/24 12:59:41;;;;;;;2.03;1.83;;;;;;;14.85;57.50;99361.78;10267147;28;20742;-58
2023/04/24 13:04:46;;;;;;;1.92;1.50;;;;;;;14.86;57.89;99346.53;10258316;28;20133;-57
2023/04/24 13:09:50;;;;;;;3.95;2.30;;;;;;;15.67;57.68;99354.31;10266566;28;20054;-60
2023/04/24 13:14:54;;;;;;;3.55;2.15;;;;;;;16.09;55.67;99347.63;10264058;28;20055;-58
2023/04/24 13:19:55;;;;;;;3.05;2.13;;;;;;;16.34;53.71;99360.84;10258433;28;20069;-59
2023/04/24 13:24:57;;;;;;;3.72;2.17;;;;;;;16.48;51.70;99335.84;10275496;28;20058;-59
2023/04/24 13:29:58;;;;;;;3.38;2.10;;;;;;;16.50;50.87;99333.84;10263745;28;20145;-59
2023/04/24 13:35:02;;;;;;;2.83;1.77;;;;;;;16.26;49.61;99359.91;10264372;28;20878;-59
2023/04/24 13:40:05;;;;;;;3.25;1.85;;;;;;;15.69;50.35;99369.22;10265232;28;20050;-59
2023/04/24 13:45:07;;;;;;;2.28;1.77;;;;;;;15.07;51.48;99375.44;10261502;28;20057;-58
2023/04/24 13:50:25;;;;;;;1.63;1.40;;;;;;;14.67;53.81;99385.31;10270354;28;20158;-60
2023/04/24 13:55:27;;;;;;;3.97;2.65;;;;;;;14.67;54.17;99385.31;10266793;28;20058;-57
2023/04/24 14:00:28;;;;;;;3.33;2.50;;;;;;;14.90;53.49;99392.59;10274291;28;20648;-57
2023/04/24 14:05:30;;;;;;;2.85;2.60;;;;;;;14.80;53.49;99390.97;10262845;28;21765;-59
2023/04/24 14:10:32;;;;;;;2.53;2.22;;;;;;;14.84;53.51;99389.59;10259103;28;20050;-58
2023/04/24 14:15:35;;;;;;;3.63;2.30;;;;;;;15.37;51.38;99391.72;10254895;28;20045;-58
2023/04/24 14:20:37;;;;;;;2.53;2.33;;;;;;;15.45;50.74;99367.53;10261032;28;20304;-58
2023/04/24 14:25:39;;;;;;;2.58;2.28;;;;;;;15.41;48.33;99374.28;10255502;28;20088;-56
2023/04/24 14:30:40;;;;;;;2.33;2.13;;;;;;;15.69;48.65;99390.69;10265334;28;20987;-53
2023/04/24 14:35:42;;;;;;;4.00;2.40;;;;;;;15.50;48.33;99369.69;10266968;28;20046;-54
2023/04/24 14:40:44;;;;;;;2.80;2.53;;;;;;;15.44;47.60;99379.28;10257086;28;20061;-53
2023/04/24 14:46:06;;;;;;;3.47;1.83;;;;;;;14.96;48.98;99373.16;10259261;28;20103;-55
2023/04/24 14:51:07;;;;;;;2.85;2.10;;;;;;;14.56;50.04;99373.06;10252435;28;20057;-55
2023/04/24 14:56:09;;;;;;;7.75;2.58;;;;;;;14.48;51.79;99387.28;10256362;28;20042;-53
2023/04/24 15:01:11;;;;;;;5.53;2.80;;;;;;;14.55;49.91;99381.28;10255694;28;20059;-54
2023/04/24 15:06:12;;;;;;;3.78;2.88;;;;;;;14.72;49.62;99388.28;10260082;28;20057;-55
2023/04/24 15:11:14;;;;;;;4.38;2.90;;;;;;;14.66;49.52;99384.44;10261870;28;20136;-54
2023/04/24 15:16:16;;;;;;;2.70;2.50;;;;;;;14.51;49.25;99380.78;10254943;28;20069;-54
2023/04/24 15:21:17;;;;;;;3.28;2.33;;;;;;;14.59;50.71;99385.28;10252498;28;20057;-53
2023/04/24 15:26:19;;;;;;;3.88;2.85;;;;;;;14.64;49.46;99397.19;10255119;28;20151;-53
2023/04/24 15:31:22;;;;;;;6.00;2.78;;;;;;;14.49;47.71;99391.66;10258385;28;20090;-54
2023/04/24 15:36:24;;;;;;;3.28;2.40;;;;;;;14.43;48.97;99378.13;10257978;28;20115;-54
2023/04/24 15:41:26;;;;;;;3.42;2.22;;;;;;;14.50;47.66;99390.66;10257266;28;20120;-54
2023/04/24 15:46:27;;;;;;;4.45;2.70;;;;;;;14.41;47.89;99385.47;10257586;28;20644;-53
2023/04/24 15:51:30;;;;;;;3.97;2.63;;;;;;;14.43;48.01;99405.72;10259707;28;20069;-54
2023/04/24 15:56:32;;;;;;;3.70;2.90;;;;;;;14.48;48.12;99408.72;10257911;28;20062;-54
2023/04/24 16:01:34;;;;;;;3.80;2.97;;;;;;;14.38;48.22;99413.44;10256976;28;20115;-54
2023/04/24 16:06:36;;;;;;;3.58;2.97;;;;;;;14.25;49.10;99397.88;10247296;28;20148;-53
2023/04/24 16:11:38;;;;;;;3.78;2.70;;;;;;;14.30;48.86;99397.38;10266801;28;20054;-54
2023/04/24 16:16:40;;;;;;;3.03;2.70;;;;;;;14.42;48.91;99411.25;10267120;28;20046;-53
2023/04/24 16:21:41;;;;;;;3.00;2.63;;;;;;;14.33;49.40;99407.72;10265743;28;20051;-53
2023/04/24 16:26:43;;;;;;;4.18;3.15;;;;;;;14.32;49.55;99424.78;10263000;28;20131;-53
2023/04/24 16:31:45;;;;;;;5.97;2.70;;;;;;;14.27;49.05;99411.09;10265812;28;20188;-53
2023/04/24 16:36:46;;;;;;;4.13;2.80;;;;;;;14.22;49.39;99416.13;10267983;28;21174;-53
2023/04/24 16:41:48;;;;;;;4.05;2.72;;;;;;;14.28;49.42;99416.28;10269201;28;20219;-53
2023/04/24 16:46:50;;;;;;;2.88;2.25;;;;;;;14.30;49.39;99403.53;10266591;28;20054;-53
2023/04/24 16:51:52;;;;;;;4.07;2.85;;;;;;;14.40;47.69;99421.31;10271410;28;20062;-53
2023/04/24 16:56:54;;;;;;;3.95;3.10;;;;;;;14.27;48.49;99421.78;10264538;28;20475;-54
2023/04/24 17:01:56;;;;;;;3.75;3.20;;;;;;;14.18;48.67;99412.09;10267927;28;20061;-53
2023/04/24 17:06:57;;;;;;;2.80;2.50;;;;;;;14.20;49.05;99415.44;10267512;28;20054;-53
2023/04/24 17:12:01;;;;;;;3.50;3.08;;;;;;;14.07;48.19;99424.81;10264065;28;20087;-55
2023/04/24 17:17:02;;;;;;;4.20;2.95;;;;;;;14.02;48.64;99419.13;10271553;28;20061;-53
2023/04/24 17:22:04;;;;;;;3.65;2.95;;;;;;;13.93;48.89;99417.41;10273748;28;20125;-53
2023/04/24 17:27:07;;;;;;;3.63;2.85;;;;;;;13.89;49.18;99426.81;10266808;28;20054;-53
2023/04/24 17:32:15;;;;;;;3.45;3.00;;;;;;;13.90;49.18;99423.09;10263496;28;20977;-52
2023/04/24 17:37:21;;;;;;;3.97;2.90;;;;;;;13.90;48.90;99432.00;10267916;28;20128;-52
2023/04/24 17:42:23;;;;;;;2.80;2.60;;;;;;;13.84;49.71;99426.44;10268602;28;20071;-52
2023/04/24 17:47:26;;;;;;;3.35;3.00;;;;;;;13.77;48.92;99421.75;10264079;28;20904;-52
2023/04/24 17:52:28;;;;;;;4.32;2.80;;;;;;;13.77;49.46;99431.63;10285597;28;20556;-53
2023/04/24 17:57:29;;;;;;;3.13;2.45;;;;;;;13.69;49.47;99429.78;10267967;28;20058;-56
2023/04/24 18:02:31;;;;;;;2.65;2.15;;;;;;;13.72;50.15;99429.44;10268583;28;20070;-52
2023/04/24 18:07:32;;;;;;;3.85;2.90;;;;;;;13.74;50.76;99435.47;10263656;28;20053;-52
2023/04/24 18:12:34;;;;;;;4.10;2.70;;;;;;;13.83;49.64;99446.19;10269121;28;20200;-53
2023/04/24 18:17:36;;;;;;;3.25;2.95;;;;;;;13.50;51.90;99425.53;10261264;28;20051;-54
2023/04/24 18:22:37;;;;;;;3.88;2.78;;;;;;;13.50;53.98;99457.63;10281186;28;20863;-59
2023/04/24 18:27:40;;;;;;;3.55;2.55;;;;;;;13.16;54.82;99466.47;10267029;28;20058;-54
2023/04/24 18:32:42;;;;;;;2.10;1.90;;;;;;;13.13;55.20;99471.28;10262073;28;20207;-52
2023/04/24 18:37:45;;;;;;;2.78;2.45;;;;;;;13.04;56.02;99476.59;10259381;28;20051;-54
2023/04/24 18:42:47;;;;;;;3.92;2.60;;;;;;;12.97;57.06;99478.22;10264135;28;20057;-55
2023/04/24 18:47:49;;;;;;;3.33;2.90;;;;;;;12.76;58.45;99489.28;10272043;28;20050;-53
2023/04/24 18:52:51;;;;;;;3.40;2.90;;;;;;;12.77;58.35;99492.78;10267849;28;20135;-54
2023/04/24 18:57:52;;;;;;;4.32;3.60;;;;;;;12.77;58.66;99503.47;10267122;28;20084;-53
2023/04/24 19:02:54;;;;;;;5.00;3.10;;;;;;;12.72;59.19;99507.44;10265644;28;20046;-53
2023/04/24 19:08:00;;;;;;;5.38;3.72;;;;;;;12.48;59.58;99494.72;10270232;28;20545;-53
2023/04/24 19:13:02;;;;;;;4.05;3.67;;;;;;;12.66;59.61;99517.91;10272148;28;21305;-53
2023/04/24 19:18:04;;;;;;;3.53;3.22;;;;;;;12.53;61.13;99523.63;10271289;28;20054;-54
2023/04/24 19:23:07;;;;;;;2.63;2.05;;;;;;;12.41;63.40;99539.03;10284678;28;20766;-53
2023/04/24 19:28:09;;;;;;;2.78;2.03;;;;;;;12.28;64.83;99530.56;10272791;28;20054;-53
2023/04/24 19:33:11;;;;;;;2.05;1.70;;;;;;;12.30;66.40;99537.44;10263110;28;20055;-53
2023/04/24 19:38:13;;;;;;;1.75;1.45;;;;;;;12.12;68.67;99531.28;10269834;28;20149;-54
2023/04/24 19:43:15;;;;;;;2.05;1.85;;;;;;;12.08;70.49;99537.88;10267455;28;20056;-53
2023/04/24 19:48:16;;;;;;;2.10;1.90;;;;;;;12.19;70.17;99533.19;10280733;28;20144;-53
2023/04/24 19:53:18;;;;;;;2.28;1.73;;;;;;;12.24;71.96;99534.56;10286881;28;20616;-54
2023/04/24 19:58:20;;;;;;;5.43;2.78;;;;;;;12.23;71.05;99539.03;10282629;28;20144;-54
2023/04/24 20:03:21;;;;;;;2.13;1.92;;;;;;;12.23;69.78;99538.22;10288677;28;20675;-53
2023/04/24 20:08:37;;;;;;;3.40;2.50;;;;;;;12.13;70.09;99548.94;10277105;28;20739;-55
2023/04/24 20:13:39;;;;;;;3.10;2.20;;;;;;;12.02;70.07;99550.84;10269428;28;20058;-54
2023/04/24 20:18:40;;;;;;;2.40;2.20;;;;;;;11.93;69.62;99545.56;10274367;28;20680;-53
2023/04/24 20:23:42;;;;;;;2.00;1.83;;;;;;;11.83;70.07;99542.94;10267806;28;20958;-54
2023/04/24 20:28:43;;;;;;;2.20;2.00;;;;;;;11.82;71.88;99530.59;10267341;28;20054;-54
2023/04/24 20:33:45;;;;;;;2.97;1.70;;;;;;;11.82;70.07;99526.06;10262387;28;20870;-54
2023/04/24 20:38:47;;;;;;;2.15;1.95;;;;;;;11.87;70.02;99541.63;10243457;28;20117;-53
2023/04/24 20:43:49;;;;;;;2.80;2.45;;;;;;;11.83;69.98;99525.09;10223790;28;20479;-54
2023/04/24 20:48:50;;;;;;;2.90;2.63;;;;;;;11.87;69.68;99528.28;10224541;28;20619;-54
2023/04/24 20:53:52;;;;;;;2.90;2.70;;;;;;;11.84;69.29;99523.25;10226597;28;20182;-56
2023/04/24 20:58:54;;;;;;;3.00;2.70;;;;;;;11.84;70.12;99529.44;10218899;28;20169;-53
2023/04/24 21:03:59;;;;;;;3.37;2.87;;;;;;;11.86;70.13;99531.97;10222640;28;20072;-54
2023/04/24 21:09:00;;;;;;;3.78;3.47;;;;;;;11.93;70.48;99522.38;10218606;28;20062;-58
2023/04/24 21:14:02;;;;;;;3.92;3.45;;;;;;;11.96;69.73;99524.75;10228791;28;20103;-56
2023/04/24 21:19:04;;;;;;;5.18;3.60;;;;;;;11.95;70.20;99528.44;10221920;28;20063;-54
2023/04/24 21:24:08;;;;;;;5.45;4.35;;;;;;;11.95;71.12;99517.75;10221517;28;20173;-53
2023/04/24 21:29:10;;;;;;;4.22;3.88;;;;;;;12.03;70.98;99512.50;10219359;28;20056;-54
2023/04/24 21:34:12;;;;;;;4.47;4.07;;;;;;;12.02;71.52;99509.97;10227119;28;20137;-55
2023/04/24 21:39:14;;;;;;;6.90;4.90;;;;;;;11.95;71.81;99509.75;10227935;28;20054;-53
2023/04/24 21:44:15;;;;;;;5.05;4.60;;;;;;;11.88;72.57;99508.66;10206936;28;20229;-54
2023/04/24 21:49:17;;;;;;;6.15;5.55;;;;;;;11.86;72.31;99515.97;10265440;28;20133;-54
2023/04/24 21:54:19;;;;;;;4.28;3.75;;;;;;;11.80;72.33;99508.53;10258139;28;20137;-54
2023/04/24 21:59:21;;;;;;;3.88;3.58;;;;;;;11.77;72.55;99500.84;10253325;28;20050;-53
2023/04/24 22:04:22;;;;;;;3.95;3.50;;;;;;;11.67;72.91;99509.75;10265746;28;20070;-54
2023/04/24 22:09:24;;;;;;;3.80;3.50;;;;;;;11.67;73.76;99495.59;10268286;28;20070;-55
2023/04/24 22:14:26;;;;;;;4.38;3.97;;;;;;;11.52;73.72;99497.91;10262520;28;20051;-53
2023/04/24 22:19:27;;;;;;;4.93;4.07;;;;;;;11.51;75.76;99488.22;10253934;28;20049;-53
2023/04/24 22:24:29;;;;;;;4.78;4.38;;;;;;;11.55;75.85;99489.63;10259393;28;20077;-52
2023/04/24 22:29:31;;;;;;;5.22;4.72;;;;;;;11.63;76.45;99495.06;10252875;28;20058;-54
2023/04/24 22:34:32;;;;;;;5.53;5.03;;;;;;;11.58;74.94;99502.63;10215926;28;20046;-54
2023/04/24 22:39:34;;;;;;;4.97;4.50;;;;;;;11.54;74.97;99500.44;10220238;28;20655;-54
2023/04/24 22:44:35;;;;;;;7.25;5.57;;;;;;;11.56;76.78;99504.63;10220401;28;20047;-53
2023/04/24 22:49:38;;;;;;;6.50;5.63;;;;;;;11.65;77.87;99502.91;10214296;28;20173;-54
2023/04/24 22:54:40;;;;;;;6.50;5.50;;;;;;;11.67;78.57;99498.25;10216277;28;20210;-54
2023/04/24 22:59:42;;;;;;;6.20;5.47;;;;;;;11.70;77.75;99499.78;10217008;28;20122;-54
2023/04/24 23:04:44;;;;;;;7.30;5.72;;;;;;;11.65;77.98;99498.41;10214476;28;20054;-54
2023/04/24 23:09:45;;;;;;;7.28;6.53;;;;;;;11.63;80.72;99495.06;10251309;28;20201;-54
2023/04/24 23:14:47;;;;;;;7.55;6.75;;;;;;;11.68;78.85;99500.75;10256813;28;20743;-53
2023/04/24 23:19:48;;;;;;;5.85;5.30;;;;;;;11.55;77.59;99494.94;10252782;28;20050;-53
2023/04/24 23:24:50;;;;;;;6.28;5.53;;;;;;;11.39;76.41;99465.44;10256275;28;20069;-53